sensor_id;sensor_type;location;lat;lon;timestamp;pressure;altitude;pressure_sealevel;temperature;humidity
64253;BME280;50592;52.958;-7.470;2022-08-18T00:02:27;100341.63;;;16.05;70.50
64253;BME280;50592;52.958;-7.470;2022-08-18T00:04:54;100351.28;;;16.06;70.54
64253;BME280;50592;52.958;-7.470;2022-08-18T00:07:26;100343.28;;;16.06;70.41
64253;BME280;50592;52.958;-7.470;2022-08-18T00:09:52;100332.97;;;16.03;70.48
64253;BME280;50592;52.958;-7.470;2022-08-18T00:12:23;100329.66;;;16.01;70.47
64253;BME280;50592;52.958;-7.470;2022-08-18T00:14:50;100323.84;;;15.97;70.51
64253;BME280;50592;52.958;-7.470;2022-08-18T00:17:16;100324.84;;;15.96;70.59
64253;BME280;50592;52.958;-7.470;2022-08-18T00:19:42;100330.53;;;15.93;70.66
64253;BME280;50592;52.958;-7.470;2022-08-18T00:22:10;100323.94;;;15.89;70.62
64253;BME280;50592;52.958;-7.470;2022-08-18T00:24:36;100317.13;;;15.86;70.62
64253;BME280;50592;52.958;-7.470;2022-08-18T00:27:03;100308.69;;;15.83;70.74
64253;BME280;50592;52.958;-7.470;2022-08-18T00:29:30;100297.25;;;15.74;70.98
64253;BME280;50592;52.958;-7.470;2022-08-18T00:31:56;100301.50;;;15.68;70.92
64253;BME280;50592;52.958;-7.470;2022-08-18T00:34:22;100299.38;;;15.63;71.34
64253;BME280;50592;52.958;-7.470;2022-08-18T00:36:48;100301.09;;;15.56;71.57
64253;BME280;50592;52.958;-7.470;2022-08-18T00:39:15;100295.59;;;15.58;71.71
64253;BME280;50592;52.958;-7.470;2022-08-18T00:41:41;100303.94;;;15.55;71.80
64253;BME280;50592;52.958;-7.470;2022-08-18T00:44:07;100294.00;;;15.48;72.12
64253;BME280;50592;52.958;-7.470;2022-08-18T00:46:36;100292.72;;;15.44;72.33
64253;BME280;50592;52.958;-7.470;2022-08-18T00:49:03;100296.72;;;15.40;72.69
64253;BME280;50592;52.958;-7.470;2022-08-18T00:51:32;100292.44;;;15.39;72.79
64253;BME280;50592;52.958;-7.470;2022-08-18T00:54:10;100285.28;;;15.40;72.78
64253;BME280;50592;52.958;-7.470;2022-08-18T00:56:48;100286.44;;;15.37;73.09
64253;BME280;50592;52.958;-7.470;2022-08-18T01:01:48;100267.91;;;15.29;73.62
64253;BME280;50592;52.958;-7.470;2022-08-18T01:04:19;100265.41;;;15.27;73.88
64253;BME280;50592;52.958;-7.470;2022-08-18T01:06:55;100257.31;;;15.20;74.30
64253;BME280;50592;52.958;-7.470;2022-08-18T01:09:22;100260.22;;;15.10;74.72
64253;BME280;50592;52.958;-7.470;2022-08-18T01:11:48;100263.91;;;15.09;75.10
64253;BME280;50592;52.958;-7.470;2022-08-18T01:14:16;100261.22;;;15.09;75.29
64253;BME280;50592;52.958;-7.470;2022-08-18T01:16:46;100259.91;;;15.05;75.97
64253;BME280;50592;52.958;-7.470;2022-08-18T01:19:32;100257.34;;;14.97;76.45
64253;BME280;50592;52.958;-7.470;2022-08-18T01:25:14;100256.19;;;14.91;77.35
64253;BME280;50592;52.958;-7.470;2022-08-18T01:27:59;100254.06;;;14.86;77.96
64253;BME280;50592;52.958;-7.470;2022-08-18T01:30:29;100247.28;;;14.84;78.28
64253;BME280;50592;52.958;-7.470;2022-08-18T01:32:56;100246.28;;;14.76;78.89
64253;BME280;50592;52.958;-7.470;2022-08-18T01:35:25;100249.31;;;14.73;79.37
64253;BME280;50592;52.958;-7.470;2022-08-18T01:37:53;100244.69;;;14.67;80.29
64253;BME280;50592;52.958;-7.470;2022-08-18T01:40:21;100242.22;;;14.66;80.72
64253;BME280;50592;52.958;-7.470;2022-08-18T01:42:47;100237.25;;;14.62;80.93
64253;BME280;50592;52.958;-7.470;2022-08-18T01:45:15;100235.59;;;14.61;81.48
64253;BME280;50592;52.958;-7.470;2022-08-18T01:47:42;100237.25;;;14.62;81.78
64253;BME280;50592;52.958;-7.470;2022-08-18T01:50:09;100229.78;;;14.58;82.67
64253;BME280;50592;52.958;-7.470;2022-08-18T01:52:38;100220.16;;;14.57;83.11
64253;BME280;50592;52.958;-7.470;2022-08-18T01:55:05;100215.66;;;14.57;83.55
64253;BME280;50592;52.958;-7.470;2022-08-18T01:57:34;100214.00;;;14.56;84.15
64253;BME280;50592;52.958;-7.470;2022-08-18T02:00:00;100206.75;;;14.50;84.34
64253;BME280;50592;52.958;-7.470;2022-08-18T02:02:29;100207.44;;;14.44;85.25
64253;BME280;50592;52.958;-7.470;2022-08-18T02:05:02;100194.69;;;14.39;85.70
64253;BME280;50592;52.958;-7.470;2022-08-18T02:07:29;100190.25;;;14.31;86.40
64253;BME280;50592;52.958;-7.470;2022-08-18T02:09:54;100189.56;;;14.29;87.13
64253;BME280;50592;52.958;-7.470;2022-08-18T02:12:20;100195.91;;;14.28;87.49
64253;BME280;50592;52.958;-7.470;2022-08-18T02:14:46;100196.09;;;14.26;87.77
64253;BME280;50592;52.958;-7.470;2022-08-18T02:17:12;100185.44;;;14.26;87.89
64253;BME280;50592;52.958;-7.470;2022-08-18T02:19:43;100174.81;;;14.26;87.91
64253;BME280;50592;52.958;-7.470;2022-08-18T02:22:18;100177.31;;;14.28;88.18
64253;BME280;50592;52.958;-7.470;2022-08-18T02:24:44;100175.63;;;14.27;88.67
64253;BME280;50592;52.958;-7.470;2022-08-18T02:27:11;100164.53;;;14.23;89.26
64253;BME280;50592;52.958;-7.470;2022-08-18T02:29:38;100162.69;;;14.24;89.29
64253;BME280;50592;52.958;-7.470;2022-08-18T02:32:04;100166.88;;;14.18;90.18
64253;BME280;50592;52.958;-7.470;2022-08-18T02:34:30;100166.88;;;14.18;90.31
64253;BME280;50592;52.958;-7.470;2022-08-18T02:36:58;100167.72;;;14.19;90.18
64253;BME280;50592;52.958;-7.470;2022-08-18T02:39:24;100167.72;;;14.19;90.65
64253;BME280;50592;52.958;-7.470;2022-08-18T02:41:50;100164.88;;;14.20;90.79
64253;BME280;50592;52.958;-7.470;2022-08-18T02:44:16;100167.53;;;14.20;90.77
64253;BME280;50592;52.958;-7.470;2022-08-18T02:46:41;100165.88;;;14.19;91.70
64253;BME280;50592;52.958;-7.470;2022-08-18T02:49:07;100153.59;;;14.18;91.86
64253;BME280;50592;52.958;-7.470;2022-08-18T02:51:33;100146.63;;;14.17;92.00
64253;BME280;50592;52.958;-7.470;2022-08-18T02:53:59;100146.28;;;14.20;91.89
64253;BME280;50592;52.958;-7.470;2022-08-18T02:56:28;100149.41;;;14.24;91.88
64253;BME280;50592;52.958;-7.470;2022-08-18T03:01:26;100153.56;;;14.26;91.75
64253;BME280;50592;52.958;-7.470;2022-08-18T03:03:53;100142.75;;;14.28;92.24
64253;BME280;50592;52.958;-7.470;2022-08-18T03:06:20;100132.75;;;14.30;92.08
64253;BME280;50592;52.958;-7.470;2022-08-18T03:08:46;100132.56;;;14.32;92.24
64253;BME280;50592;52.958;-7.470;2022-08-18T03:11:16;100143.50;;;14.37;92.38
64253;BME280;50592;52.958;-7.470;2022-08-18T03:13:43;100129.41;;;14.36;92.63
64253;BME280;50592;52.958;-7.470;2022-08-18T03:16:09;100126.75;;;14.36;92.40
64253;BME280;50592;52.958;-7.470;2022-08-18T03:18:34;100127.00;;;14.42;92.47
64253;BME280;50592;52.958;-7.470;2022-08-18T03:21:08;100127.31;;;14.47;92.37
64253;BME280;50592;52.958;-7.470;2022-08-18T03:23:35;100124.31;;;14.50;92.36
64253;BME280;50592;52.958;-7.470;2022-08-18T03:26:01;100121.75;;;14.57;92.17
64253;BME280;50592;52.958;-7.470;2022-08-18T03:28:27;100124.06;;;14.60;92.32
64253;BME280;50592;52.958;-7.470;2022-08-18T03:30:53;100115.91;;;14.61;92.33
64253;BME280;50592;52.958;-7.470;2022-08-18T03:33:20;100109.22;;;14.66;92.28
64253;BME280;50592;52.958;-7.470;2022-08-18T03:35:46;100104.53;;;14.68;92.45
64253;BME280;50592;52.958;-7.470;2022-08-18T03:38:12;100098.94;;;14.62;92.46
64253;BME280;50592;52.958;-7.470;2022-08-18T03:40:37;100096.44;;;14.61;92.51
64253;BME280;50592;52.958;-7.470;2022-08-18T03:43:03;100090.16;;;14.62;92.58
64253;BME280;50592;52.958;-7.470;2022-08-18T03:45:32;100088.47;;;14.61;93.07
64253;BME280;50592;52.958;-7.470;2022-08-18T03:47:59;100087.47;;;14.62;92.85
64253;BME280;50592;52.958;-7.470;2022-08-18T03:50:28;100080.50;;;14.61;92.79
64253;BME280;50592;52.958;-7.470;2022-08-18T03:52:54;100091.97;;;14.61;92.86
64253;BME280;50592;52.958;-7.470;2022-08-18T03:55:26;100087.47;;;14.62;93.02
64253;BME280;50592;52.958;-7.470;2022-08-18T03:57:57;100083.63;;;14.64;92.92
64253;BME280;50592;52.958;-7.470;2022-08-18T04:00:23;100078.31;;;14.64;93.06
64253;BME280;50592;52.958;-7.470;2022-08-18T04:02:51;100077.09;;;14.67;92.94
64253;BME280;50592;52.958;-7.470;2022-08-18T04:05:16;100075.28;;;14.68;93.18
64253;BME280;50592;52.958;-7.470;2022-08-18T04:07:42;100075.00;;;14.62;93.46
64253;BME280;50592;52.958;-7.470;2022-08-18T04:10:08;100078.66;;;14.61;93.43
64253;BME280;50592;52.958;-7.470;2022-08-18T04:12:34;100076.19;;;14.60;93.46
64253;BME280;50592;52.958;-7.470;2022-08-18T04:15:01;100083.50;;;14.58;93.67
64253;BME280;50592;52.958;-7.470;2022-08-18T04:17:27;100078.38;;;14.56;93.85
64253;BME280;50592;52.958;-7.470;2022-08-18T04:19:54;100074.88;;;14.56;93.90
64253;BME280;50592;52.958;-7.470;2022-08-18T04:22:21;100059.28;;;14.52;94.47
64253;BME280;50592;52.958;-7.470;2022-08-18T04:24:47;100065.63;;;14.51;94.35
64253;BME280;50592;52.958;-7.470;2022-08-18T04:27:15;100067.44;;;14.51;94.67
64253;BME280;50592;52.958;-7.470;2022-08-18T04:29:41;100062.13;;;14.51;94.93
64253;BME280;50592;52.958;-7.470;2022-08-18T04:32:06;100057.63;;;14.51;94.85
64253;BME280;50592;52.958;-7.470;2022-08-18T04:34:33;100050.69;;;14.50;94.63
64253;BME280;50592;52.958;-7.470;2022-08-18T04:37:00;100057.63;;;14.51;95.21
64253;BME280;50592;52.958;-7.470;2022-08-18T04:39:26;100059.94;;;14.55;95.29
64253;BME280;50592;52.958;-7.470;2022-08-18T04:41:52;100055.09;;;14.58;95.20
64253;BME280;50592;52.958;-7.470;2022-08-18T04:44:19;100046.94;;;14.60;95.18
64253;BME280;50592;52.958;-7.470;2022-08-18T04:46:51;100038.94;;;14.60;95.19
64253;BME280;50592;52.958;-7.470;2022-08-18T04:49:22;100026.50;;;14.60;95.44
64253;BME280;50592;52.958;-7.470;2022-08-18T04:51:50;100037.28;;;14.59;95.53
64253;BME280;50592;52.958;-7.470;2022-08-18T04:54:36;100041.63;;;14.60;95.35
64253;BME280;50592;52.958;-7.470;2022-08-18T04:57:12;100046.38;;;14.64;95.53
64253;BME280;50592;52.958;-7.470;2022-08-18T04:59:41;100047.41;;;14.63;95.76
64253;BME280;50592;52.958;-7.470;2022-08-18T05:02:08;100051.53;;;14.66;95.73
64253;BME280;50592;52.958;-7.470;2022-08-18T05:04:36;100047.22;;;14.65;96.26
64253;BME280;50592;52.958;-7.470;2022-08-18T05:07:07;100048.69;;;14.68;96.06
64253;BME280;50592;52.958;-7.470;2022-08-18T05:09:34;100034.56;;;14.67;96.31
64253;BME280;50592;52.958;-7.470;2022-08-18T05:12:01;100034.72;;;14.66;96.75
64253;BME280;50592;52.958;-7.470;2022-08-18T05:14:27;100028.41;;;14.67;96.71
64253;BME280;50592;52.958;-7.470;2022-08-18T05:16:52;100030.25;;;14.66;96.85
64253;BME280;50592;52.958;-7.470;2022-08-18T05:19:22;100039.06;;;14.67;97.22
64253;BME280;50592;52.958;-7.470;2022-08-18T05:21:50;100038.03;;;14.68;97.41
64253;BME280;50592;52.958;-7.470;2022-08-18T05:24:16;100031.72;;;14.69;97.44
64253;BME280;50592;52.958;-7.470;2022-08-18T05:26:42;100028.88;;;14.70;97.72
64253;BME280;50592;52.958;-7.470;2022-08-18T05:29:08;100017.41;;;14.70;97.63
64253;BME280;50592;52.958;-7.470;2022-08-18T05:31:33;100017.22;;;14.71;97.74
64253;BME280;50592;52.958;-7.470;2022-08-18T05:33:59;100018.03;;;14.72;98.03
64253;BME280;50592;52.958;-7.470;2022-08-18T05:39:27;100026.84;;;14.72;98.12
64253;BME280;50592;52.958;-7.470;2022-08-18T05:42:07;100019.53;;;14.74;98.16
64253;BME280;50592;52.958;-7.470;2022-08-18T05:44:40;100019.97;;;14.78;98.38
64253;BME280;50592;52.958;-7.470;2022-08-18T05:49:50;100005.53;;;14.81;98.51
64253;BME280;50592;52.958;-7.470;2022-08-18T05:52:38;100010.00;;;14.80;98.72
64253;BME280;50592;52.958;-7.470;2022-08-18T05:55:14;100008.38;;;14.79;99.24
64253;BME280;50592;52.958;-7.470;2022-08-18T05:58:07;99993.38;;;14.78;99.70
64253;BME280;50592;52.958;-7.470;2022-08-18T06:00:34;99989.06;;;14.77;99.97
64253;BME280;50592;52.958;-7.470;2022-08-18T06:03:14;99988.22;;;14.76;100.00
64253;BME280;50592;52.958;-7.470;2022-08-18T06:06:01;99982.28;;;14.74;100.00
64253;BME280;50592;52.958;-7.470;2022-08-18T06:08:32;99983.75;;;14.77;100.00
64253;BME280;50592;52.958;-7.470;2022-08-18T06:11:01;99983.75;;;14.77;100.00
64253;BME280;50592;52.958;-7.470;2022-08-18T06:13:27;99981.75;;;14.79;100.00
64253;BME280;50592;52.958;-7.470;2022-08-18T06:18:54;99984.25;;;14.81;100.00
64253;BME280;50592;52.958;-7.470;2022-08-18T06:21:52;99975.25;;;14.82;100.00
64253;BME280;50592;52.958;-7.470;2022-08-18T06:24:30;99988.00;;;14.86;100.00
64253;BME280;50592;52.958;-7.470;2022-08-18T06:39:15;99969.56;;;15.00;100.00
64253;BME280;50592;52.958;-7.470;2022-08-18T06:41:20;99979.44;;;15.06;100.00
64253;BME280;50592;52.958;-7.470;2022-08-18T06:43:55;99980.34;;;15.13;100.00
64253;BME280;50592;52.958;-7.470;2022-08-18T06:46:31;99970.81;;;15.19;100.00
64253;BME280;50592;52.958;-7.470;2022-08-18T06:49:03;99975.75;;;15.22;100.00
64253;BME280;50592;52.958;-7.470;2022-08-18T06:51:29;99966.56;;;15.25;100.00
64253;BME280;50592;52.958;-7.470;2022-08-18T06:56:59;99968.47;;;15.31;100.00
64253;BME280;50592;52.958;-7.470;2022-08-18T06:59:26;99958.66;;;15.32;100.00
64253;BME280;50592;52.958;-7.470;2022-08-18T07:02:01;99944.31;;;15.33;100.00
64253;BME280;50592;52.958;-7.470;2022-08-18T07:05:01;99943.31;;;15.34;100.00
64253;BME280;50592;52.958;-7.470;2022-08-18T07:07:38;99944.41;;;15.40;100.00
64253;BME280;50592;52.958;-7.470;2022-08-18T07:12:40;99955.75;;;15.48;100.00
64253;BME280;50592;52.958;-7.470;2022-08-18T07:15:07;99956.19;;;15.52;100.00
64253;BME280;50592;52.958;-7.470;2022-08-18T07:17:37;99957.28;;;15.58;100.00
64253;BME280;50592;52.958;-7.470;2022-08-18T07:22:53;99965.16;;;15.66;100.00
64253;BME280;50592;52.958;-7.470;2022-08-18T07:25:21;99965.53;;;15.63;100.00
64253;BME280;50592;52.958;-7.470;2022-08-18T07:27:49;99964.19;;;15.74;100.00
64253;BME280;50592;52.958;-7.470;2022-08-18T07:32:57;99954.06;;;15.84;100.00
64253;BME280;50592;52.958;-7.470;2022-08-18T07:35:45;99955.31;;;15.88;100.00
64253;BME280;50592;52.958;-7.470;2022-08-18T07:38:29;99947.75;;;15.92;100.00
64253;BME280;50592;52.958;-7.470;2022-08-18T07:41:08;99950.03;;;15.95;100.00
64253;BME280;50592;52.958;-7.470;2022-08-18T07:46:12;99949.16;;;16.10;100.00
64253;BME280;50592;52.958;-7.470;2022-08-18T07:48:40;99953.09;;;16.14;100.00
64253;BME280;50592;52.958;-7.470;2022-08-18T07:54:46;99936.13;;;16.22;100.00
64253;BME280;50592;52.958;-7.470;2022-08-18T07:57:45;99946.66;;;16.30;100.00
64253;BME280;50592;52.958;-7.470;2022-08-18T08:00:33;99932.34;;;16.38;100.00
64253;BME280;50592;52.958;-7.470;2022-08-18T08:05:47;99934.25;;;16.51;100.00
64253;BME280;50592;52.958;-7.470;2022-08-18T08:08:34;99943.91;;;16.52;100.00
64253;BME280;50592;52.958;-7.470;2022-08-18T08:13:58;99933.28;;;16.59;100.00
64253;BME280;50592;52.958;-7.470;2022-08-18T08:16:43;99929.81;;;16.65;100.00
64253;BME280;50592;52.958;-7.470;2022-08-18T08:21:56;99932.53;;;16.72;100.00
64253;BME280;50592;52.958;-7.470;2022-08-18T08:33:37;99918.38;;;16.78;100.00
64253;BME280;50592;52.958;-7.470;2022-08-18T08:36:20;99922.50;;;16.81;100.00
64253;BME280;50592;52.958;-7.470;2022-08-18T08:41:58;99926.44;;;16.85;100.00
64253;BME280;50592;52.958;-7.470;2022-08-18T08:44:31;99921.69;;;16.87;100.00
64253;BME280;50592;52.958;-7.470;2022-08-18T08:47:07;99926.03;;;16.95;100.00
64253;BME280;50592;52.958;-7.470;2022-08-18T08:49:47;99917.03;;;16.96;100.00
64253;BME280;50592;52.958;-7.470;2022-08-18T08:52:23;99917.22;;;17.01;100.00
64253;BME280;50592;52.958;-7.470;2022-08-18T08:54:58;99917.47;;;17.06;100.00
64253;BME280;50592;52.958;-7.470;2022-08-18T08:57:26;99911.53;;;17.11;100.00
64253;BME280;50592;52.958;-7.470;2022-08-18T08:59:55;99909.31;;;17.15;100.00
64253;BME280;50592;52.958;-7.470;2022-08-18T09:02:36;99909.09;;;17.16;100.00
64253;BME280;50592;52.958;-7.470;2022-08-18T09:05:37;99901.53;;;17.20;100.00
64253;BME280;50592;52.958;-7.470;2022-08-18T09:24:05;99866.81;;;17.40;100.00
64253;BME280;50592;52.958;-7.470;2022-08-18T09:29:20;99864.56;;;17.44;100.00
64253;BME280;50592;52.958;-7.470;2022-08-18T09:37:25;99861.91;;;17.57;100.00
64253;BME280;50592;52.958;-7.470;2022-08-18T09:40:22;99861.47;;;17.54;100.00
64253;BME280;50592;52.958;-7.470;2022-08-18T09:44:10;99864.97;;;17.54;100.00
64253;BME280;50592;52.958;-7.470;2022-08-18T09:46:09;99859.22;;;17.57;100.00
64253;BME280;50592;52.958;-7.470;2022-08-18T09:48:37;99853.47;;;17.60;100.00
64253;BME280;50592;52.958;-7.470;2022-08-18T09:51:35;99852.63;;;17.60;100.00
64253;BME280;50592;52.958;-7.470;2022-08-18T09:54:08;99853.06;;;17.64;100.00
64253;BME280;50592;52.958;-7.470;2022-08-18T10:02:09;99843.19;;;17.84;100.00
64253;BME280;50592;52.958;-7.470;2022-08-18T10:04:40;99836.16;;;17.90;100.00
64253;BME280;50592;52.958;-7.470;2022-08-18T10:17:47;99846.19;;;18.29;100.00
64253;BME280;50592;52.958;-7.470;2022-08-18T10:20:35;99853.81;;;18.32;100.00
64253;BME280;50592;52.958;-7.470;2022-08-18T10:23:05;99834.88;;;18.33;100.00
64253;BME280;50592;52.958;-7.470;2022-08-18T10:25:36;99820.44;;;18.41;100.00
64253;BME280;50592;52.958;-7.470;2022-08-18T10:28:04;99827.38;;;18.49;100.00
64253;BME280;50592;52.958;-7.470;2022-08-18T10:33:09;99825.75;;;18.55;100.00
64253;BME280;50592;52.958;-7.470;2022-08-18T10:38:20;99829.06;;;18.50;100.00
64253;BME280;50592;52.958;-7.470;2022-08-18T10:41:04;99828.66;;;18.46;100.00
64253;BME280;50592;52.958;-7.470;2022-08-18T10:43:36;99830.50;;;18.46;100.00
64253;BME280;50592;52.958;-7.470;2022-08-18T10:46:14;99819.19;;;18.44;100.00
64253;BME280;50592;52.958;-7.470;2022-08-18T10:48:41;99816.31;;;18.45;100.00
64253;BME280;50592;52.958;-7.470;2022-08-18T10:53:49;99809.91;;;18.53;100.00
64253;BME280;50592;52.958;-7.470;2022-08-18T11:04:29;99798.13;;;18.61;100.00
64253;BME280;50592;52.958;-7.470;2022-08-18T11:07:24;99797.50;;;18.59;100.00
64253;BME280;50592;52.958;-7.470;2022-08-18T11:09:55;99797.91;;;18.63;100.00
64253;BME280;50592;52.958;-7.470;2022-08-18T11:15:45;99802.22;;;18.64;100.00
64253;BME280;50592;52.958;-7.470;2022-08-18T11:18:40;99793.81;;;18.60;100.00
64253;BME280;50592;52.958;-7.470;2022-08-18T11:21:37;99793.59;;;18.62;100.00
64253;BME280;50592;52.958;-7.470;2022-08-18T11:24:22;99794.19;;;18.64;100.00
64253;BME280;50592;52.958;-7.470;2022-08-18T11:29:35;99791.50;;;18.64;100.00
64253;BME280;50592;52.958;-7.470;2022-08-18T11:35:43;99786.97;;;18.71;100.00
64253;BME280;50592;52.958;-7.470;2022-08-18T11:37:59;99785.69;;;18.74;100.00
64253;BME280;50592;52.958;-7.470;2022-08-18T11:43:09;99776.19;;;18.78;100.00
64253;BME280;50592;52.958;-7.470;2022-08-18T11:48:21;99789.41;;;18.72;100.00
64253;BME280;50592;52.958;-7.470;2022-08-18T11:53:23;99781.59;;;18.71;100.00
64253;BME280;50592;52.958;-7.470;2022-08-18T11:58:48;99774.75;;;18.82;100.00
64253;BME280;50592;52.958;-7.470;2022-08-18T12:01:39;99766.47;;;18.90;100.00
64253;BME280;50592;52.958;-7.470;2022-08-18T12:09:28;99757.84;;;19.39;100.00
64253;BME280;50592;52.958;-7.470;2022-08-18T12:12:13;99752.31;;;19.59;100.00
64253;BME280;50592;52.958;-7.470;2022-08-18T12:15:23;99757.44;;;19.80;100.00
64253;BME280;50592;52.958;-7.470;2022-08-18T12:17:50;99747.50;;;19.87;100.00
64253;BME280;50592;52.958;-7.470;2022-08-18T12:20:16;99753.59;;;19.94;100.00
64253;BME280;50592;52.958;-7.470;2022-08-18T12:22:43;99751.66;;;20.02;100.00
64253;BME280;50592;52.958;-7.470;2022-08-18T12:25:13;99739.91;;;20.03;100.00
64253;BME280;50592;52.958;-7.470;2022-08-18T12:27:39;99728.94;;;20.04;100.00
64253;BME280;50592;52.958;-7.470;2022-08-18T12:30:08;99723.06;;;20.14;100.00
64253;BME280;50592;52.958;-7.470;2022-08-18T12:32:35;99728.78;;;20.18;99.91
64253;BME280;50592;52.958;-7.470;2022-08-18T12:35:02;99732.66;;;20.22;99.53
64253;BME280;50592;52.958;-7.470;2022-08-18T12:37:29;99727.66;;;20.26;99.16
64253;BME280;50592;52.958;-7.470;2022-08-18T12:39:57;99728.69;;;20.25;98.53
64253;BME280;50592;52.958;-7.470;2022-08-18T12:42:24;99729.00;;;20.16;98.27
64253;BME280;50592;52.958;-7.470;2022-08-18T12:44:50;99727.66;;;20.07;98.59
64253;BME280;50592;52.958;-7.470;2022-08-18T12:47:20;99729.38;;;20.01;99.14
64253;BME280;50592;52.958;-7.470;2022-08-18T12:49:46;99731.69;;;19.98;100.00
64253;BME280;50592;52.958;-7.470;2022-08-18T12:52:12;99750.00;;;20.01;100.00
64253;BME280;50592;52.958;-7.470;2022-08-18T12:54:38;99735.56;;;20.02;100.00
64253;BME280;50592;52.958;-7.470;2022-08-18T12:57:08;99745.91;;;19.98;100.00
64253;BME280;50592;52.958;-7.470;2022-08-18T12:59:36;99754.63;;;19.93;100.00
64253;BME280;50592;52.958;-7.470;2022-08-18T13:02:01;99756.50;;;19.93;100.00
64253;BME280;50592;52.958;-7.470;2022-08-18T13:04:27;99747.50;;;19.87;100.00
64253;BME280;50592;52.958;-7.470;2022-08-18T13:06:55;99748.72;;;19.84;100.00
64253;BME280;50592;52.958;-7.470;2022-08-18T13:09:22;99733.25;;;19.87;100.00
64253;BME280;50592;52.958;-7.470;2022-08-18T13:11:47;99734.81;;;19.94;100.00
64253;BME280;50592;52.958;-7.470;2022-08-18T13:14:13;99744.06;;;19.99;100.00
64253;BME280;50592;52.958;-7.470;2022-08-18T13:16:43;99738.84;;;20.04;100.00
64253;BME280;50592;52.958;-7.470;2022-08-18T13:19:11;99744.22;;;20.04;100.00
64253;BME280;50592;52.958;-7.470;2022-08-18T13:21:39;99738.06;;;20.03;100.00
64253;BME280;50592;52.958;-7.470;2022-08-18T13:24:05;99737.00;;;20.04;100.00
64253;BME280;50592;52.958;-7.470;2022-08-18T13:26:43;99727.59;;;20.14;100.00
64253;BME280;50592;52.958;-7.470;2022-08-18T13:29:09;99731.16;;;20.26;100.00
64253;BME280;50592;52.958;-7.470;2022-08-18T13:31:36;99731.06;;;20.33;100.00
64253;BME280;50592;52.958;-7.470;2022-08-18T13:34:03;99737.31;;;20.45;100.00
64253;BME280;50592;52.958;-7.470;2022-08-18T13:36:29;99736.06;;;20.60;100.00
64253;BME280;50592;52.958;-7.470;2022-08-18T13:39:16;99731.16;;;20.57;100.00
64253;BME280;50592;52.958;-7.470;2022-08-18T13:41:42;99726.97;;;20.61;99.98
64253;BME280;50592;52.958;-7.470;2022-08-18T13:44:10;99729.78;;;20.66;96.98
64253;BME280;50592;52.958;-7.470;2022-08-18T13:46:38;99727.81;;;20.74;95.20
64253;BME280;50592;52.958;-7.470;2022-08-18T13:51:40;99730.47;;;20.92;91.93
64253;BME280;50592;52.958;-7.470;2022-08-18T13:54:07;99721.72;;;20.97;90.57
64253;BME280;50592;52.958;-7.470;2022-08-18T13:56:33;99728.97;;;21.09;89.14
64253;BME280;50592;52.958;-7.470;2022-08-18T13:58:59;99727.78;;;21.04;87.39
64253;BME280;50592;52.958;-7.470;2022-08-18T14:01:26;99720.53;;;21.05;85.03
64253;BME280;50592;52.958;-7.470;2022-08-18T14:03:51;99717.28;;;21.15;84.10
64253;BME280;50592;52.958;-7.470;2022-08-18T14:06:17;99711.56;;;21.35;83.13
64253;BME280;50592;52.958;-7.470;2022-08-18T14:08:46;99719.84;;;21.58;82.99
64253;BME280;50592;52.958;-7.470;2022-08-18T14:11:13;99714.47;;;21.58;81.95
64253;BME280;50592;52.958;-7.470;2022-08-18T14:13:38;99706.88;;;21.42;82.21
64253;BME280;50592;52.958;-7.470;2022-08-18T14:16:04;99709.91;;;21.46;83.02
64253;BME280;50592;52.958;-7.470;2022-08-18T14:18:30;99719.84;;;21.46;82.05
64253;BME280;50592;52.958;-7.470;2022-08-18T14:20:56;99706.28;;;21.52;81.95
64253;BME280;50592;52.958;-7.470;2022-08-18T14:23:40;99724.03;;;21.65;80.84
64253;BME280;50592;52.958;-7.470;2022-08-18T14:26:25;99713.88;;;21.79;79.11
64253;BME280;50592;52.958;-7.470;2022-08-18T14:29:09;99727.25;;;22.03;78.28
64253;BME280;50592;52.958;-7.470;2022-08-18T14:31:35;99725.22;;;22.11;76.16
64253;BME280;50592;52.958;-7.470;2022-08-18T14:34:01;99728.09;;;22.04;74.63
64253;BME280;50592;52.958;-7.470;2022-08-18T14:36:26;99725.75;;;21.96;74.61
64253;BME280;50592;52.958;-7.470;2022-08-18T14:38:52;99728.94;;;21.92;73.95
64253;BME280;50592;52.958;-7.470;2022-08-18T14:41:18;99744.28;;;21.80;72.57
64253;BME280;50592;52.958;-7.470;2022-08-18T14:43:45;99742.97;;;21.59;71.77
64253;BME280;50592;52.958;-7.470;2022-08-18T14:46:11;99750.59;;;21.38;71.99
64253;BME280;50592;52.958;-7.470;2022-08-18T14:48:39;99747.31;;;21.24;72.41
64253;BME280;50592;52.958;-7.470;2022-08-18T14:51:07;99742.41;;;21.09;73.48
64253;BME280;50592;52.958;-7.470;2022-08-18T14:53:34;99750.66;;;20.95;73.81
64253;BME280;50592;52.958;-7.470;2022-08-18T14:56:03;99747.00;;;20.89;73.86
64253;BME280;50592;52.958;-7.470;2022-08-18T14:58:30;99738.13;;;20.89;73.93
64253;BME280;50592;52.958;-7.470;2022-08-18T15:01:02;99748.63;;;20.78;74.04
64253;BME280;50592;52.958;-7.470;2022-08-18T15:03:30;99743.13;;;20.85;74.22
64253;BME280;50592;52.958;-7.470;2022-08-18T15:05:58;99746.56;;;20.92;73.42
64253;BME280;50592;52.958;-7.470;2022-08-18T15:08:24;99737.94;;;21.02;72.71
64253;BME280;50592;52.958;-7.470;2022-08-18T15:10:49;99734.56;;;21.19;71.89
64253;BME280;50592;52.958;-7.470;2022-08-18T15:13:15;99738.91;;;21.32;70.46
64253;BME280;50592;52.958;-7.470;2022-08-18T15:15:42;99744.50;;;21.42;69.50
64253;BME280;50592;52.958;-7.470;2022-08-18T15:18:10;99744.75;;;21.41;68.72
64253;BME280;50592;52.958;-7.470;2022-08-18T15:20:37;99752.13;;;21.34;68.74
64253;BME280;50592;52.958;-7.470;2022-08-18T15:23:26;99750.69;;;21.31;68.32
64253;BME280;50592;52.958;-7.470;2022-08-18T15:26:11;99743.31;;;21.26;66.12
64253;BME280;50592;52.958;-7.470;2022-08-18T15:28:37;99741.81;;;21.18;64.03
64253;BME280;50592;52.958;-7.470;2022-08-18T15:31:04;99722.53;;;21.10;62.03
64253;BME280;50592;52.958;-7.470;2022-08-18T15:33:30;99732.69;;;20.96;61.15